createdAt,value
2017-09-29T00:01:54.711Z,14.40
2017-09-29T00:04:23.301Z,14.30
2017-09-29T00:06:52.524Z,14.30
2017-09-29T00:09:20.901Z,14.30
2017-09-29T00:11:49.328Z,14.30
2017-09-29T00:14:17.667Z,14.20
2017-09-29T00:16:46.723Z,14.20
2017-09-29T00:19:15.015Z,14.20
2017-09-29T00:21:43.331Z,14.20
2017-09-29T00:24:11.624Z,14.20
2017-09-29T00:26:40.068Z,14.20
2017-09-29T00:29:08.419Z,14.20
2017-09-29T00:31:37.080Z,14.20
2017-09-29T00:34:05.579Z,14.20
2017-09-29T00:36:34.743Z,14.10
2017-09-29T00:39:03.100Z,14.10
2017-09-29T00:41:32.947Z,14.10
2017-09-29T00:44:01.269Z,14.10
2017-09-29T00:46:29.564Z,14.10
2017-09-29T00:48:59.397Z,14.00
2017-09-29T00:51:27.715Z,14.00
2017-09-29T00:53:56.807Z,14.00
2017-09-29T00:56:25.184Z,14.00
2017-09-29T00:58:53.615Z,13.90
2017-09-29T01:01:22.024Z,13.80
2017-09-29T01:03:50.408Z,13.80
2017-09-29T01:06:18.728Z,13.80
2017-09-29T01:08:47.060Z,13.70
2017-09-29T01:11:16.128Z,13.70
2017-09-29T01:13:44.456Z,13.70
2017-09-29T01:16:12.783Z,13.80
2017-09-29T01:18:41.220Z,13.60
2017-09-29T01:21:09.567Z,13.60
2017-09-29T01:23:38.068Z,13.60
2017-09-29T01:26:06.472Z,13.60
2017-09-29T01:28:35.687Z,13.60
2017-09-29T01:31:04.496Z,13.60
2017-09-29T01:33:32.907Z,13.60
2017-09-29T01:36:01.208Z,13.70
2017-09-29T01:38:29.618Z,13.70
2017-09-29T01:40:57.935Z,13.70
2017-09-29T01:43:27.770Z,13.70
2017-09-29T01:45:56.156Z,13.70
2017-09-29T01:48:24.596Z,13.70
2017-09-29T01:50:52.987Z,13.70
2017-09-29T01:53:22.187Z,13.70
2017-09-29T01:55:51.288Z,13.80
2017-09-29T01:58:19.616Z,13.70
2017-09-29T02:00:47.908Z,13.70
2017-09-29T02:03:16.316Z,13.70
2017-09-29T02:05:44.604Z,13.60
2017-09-29T02:08:12.927Z,13.70
2017-09-29T02:10:41.247Z,13.70
2017-09-29T02:13:09.718Z,13.70
2017-09-29T02:15:38.105Z,13.60
2017-09-29T02:18:07.245Z,13.60
2017-09-29T02:20:35.712Z,13.60
2017-09-29T02:23:04.508Z,13.60
2017-09-29T02:25:34.014Z,13.50
2017-09-29T02:28:02.456Z,13.50
2017-09-29T02:30:30.812Z,13.60
2017-09-29T02:32:59.140Z,13.60
2017-09-29T02:35:27.464Z,13.60
2017-09-29T02:37:55.979Z,13.60
2017-09-29T02:40:24.372Z,13.50
2017-09-29T02:42:53.528Z,13.50
2017-09-29T02:45:21.865Z,13.40
2017-09-29T02:47:50.157Z,13.40
2017-09-29T02:50:18.561Z,13.40
2017-09-29T02:52:46.875Z,13.40
2017-09-29T02:55:15.205Z,13.40
2017-09-29T02:57:45.846Z,13.30
2017-09-29T03:00:16.128Z,13.30
2017-09-29T03:02:54.510Z,13.40
2017-09-29T03:05:25.724Z,13.40
2017-09-29T03:07:54.372Z,13.30
2017-09-29T03:10:22.845Z,13.30
2017-09-29T03:12:51.239Z,13.40
2017-09-29T03:15:20.300Z,13.30
2017-09-29T03:17:48.719Z,13.30
2017-09-29T03:20:17.024Z,13.30
2017-09-29T03:22:45.527Z,13.30
2017-09-29T03:25:13.823Z,13.30
2017-09-29T03:27:42.123Z,13.40
2017-09-29T03:30:10.480Z,13.30
2017-09-29T03:32:39.735Z,13.20
2017-09-29T03:35:08.143Z,13.20
2017-09-29T03:37:36.564Z,13.20
2017-09-29T03:40:05.749Z,13.10
2017-09-29T03:42:34.332Z,13.10
2017-09-29T03:45:02.704Z,13.00
2017-09-29T03:47:31.100Z,13.00
2017-09-29T03:50:02.508Z,13.10
2017-09-29T03:52:32.419Z,13.00
2017-09-29T03:55:02.774Z,13.00
2017-09-29T03:57:33.022Z,12.90
2017-09-29T04:00:01.463Z,12.80
2017-09-29T04:02:30.547Z,12.70
2017-09-29T04:04:58.842Z,12.70
2017-09-29T04:07:27.243Z,12.70
2017-09-29T04:09:55.552Z,12.80
2017-09-29T04:12:24.042Z,12.80
2017-09-29T04:14:52.373Z,12.70
2017-09-29T04:17:22.180Z,12.70
2017-09-29T04:19:50.507Z,12.70
2017-09-29T04:22:18.839Z,12.70
2017-09-29T04:24:47.932Z,12.70
2017-09-29T04:27:16.263Z,12.70
2017-09-29T04:29:45.364Z,12.60
2017-09-29T04:32:13.657Z,12.60
2017-09-29T04:34:42.047Z,12.50
2017-09-29T04:37:10.455Z,12.50
2017-09-29T04:39:38.766Z,12.50
2017-09-29T04:42:07.108Z,12.50
2017-09-29T04:44:35.447Z,12.40
2017-09-29T04:47:03.837Z,12.50
2017-09-29T04:49:32.159Z,12.50
2017-09-29T04:52:00.484Z,12.40
2017-09-29T04:54:28.872Z,12.40
2017-09-29T04:56:57.171Z,12.40
2017-09-29T04:59:25.491Z,12.30
2017-09-29T05:01:53.813Z,12.40
2017-09-29T05:04:22.876Z,12.40
2017-09-29T05:06:51.316Z,12.40
2017-09-29T05:09:19.610Z,12.30
2017-09-29T05:11:47.950Z,12.30
2017-09-29T05:14:17.028Z,12.30
2017-09-29T05:16:45.328Z,12.30
2017-09-29T05:19:13.683Z,12.30
2017-09-29T05:21:41.979Z,12.30
2017-09-29T05:24:10.272Z,12.40
2017-09-29T05:26:39.365Z,12.30
2017-09-29T05:29:07.697Z,12.30
2017-09-29T05:31:36.791Z,12.30
2017-09-29T05:34:05.164Z,12.30
2017-09-29T05:36:33.573Z,12.30
2017-09-29T05:39:01.883Z,12.10
2017-09-29T05:41:30.184Z,12.20
2017-09-29T05:43:58.516Z,12.10
2017-09-29T05:46:27.575Z,12.20
2017-09-29T05:48:55.923Z,12.20
2017-09-29T05:51:24.212Z,12.20
2017-09-29T05:53:52.552Z,12.20
2017-09-29T05:56:21.671Z,12.30
2017-09-29T05:58:49.981Z,12.30
2017-09-29T06:01:18.285Z,12.30
2017-09-29T06:03:47.393Z,12.40
2017-09-29T06:06:16.451Z,12.40
2017-09-29T06:08:44.780Z,12.40
2017-09-29T06:11:13.104Z,12.40
2017-09-29T06:13:42.312Z,12.30
2017-09-29T06:16:10.607Z,12.30
2017-09-29T06:18:38.943Z,12.30
2017-09-29T06:21:08.011Z,12.30
2017-09-29T06:23:36.331Z,12.30
2017-09-29T06:26:05.516Z,12.50
2017-09-29T06:28:33.888Z,12.40
2017-09-29T06:31:03.100Z,12.50
2017-09-29T06:33:31.391Z,12.40
2017-09-29T06:35:59.732Z,12.50
2017-09-29T06:38:28.092Z,12.50
2017-09-29T06:40:56.424Z,12.60
2017-09-29T06:43:24.795Z,12.60
2017-09-29T06:45:53.136Z,12.50
2017-09-29T06:48:21.505Z,12.50
2017-09-29T06:50:49.808Z,12.60
2017-09-29T06:53:18.208Z,12.60
2017-09-29T06:55:46.512Z,12.60
2017-09-29T06:58:14.841Z,12.60
2017-09-29T07:00:44.036Z,12.70
2017-09-29T07:03:12.335Z,12.70
2017-09-29T07:05:40.660Z,12.70
2017-09-29T07:08:09.747Z,12.90
2017-09-29T07:10:38.080Z,12.90
2017-09-29T07:13:07.188Z,13.20
2017-09-29T07:15:36.992Z,13.30
2017-09-29T07:18:05.440Z,13.30
2017-09-29T07:20:33.767Z,13.30
2017-09-29T07:23:02.124Z,13.40
2017-09-29T07:25:31.283Z,13.40
2017-09-29T07:28:00.944Z,13.60
2017-09-29T07:30:30.231Z,13.60
2017-09-29T07:32:58.812Z,13.70
2017-09-29T07:35:27.216Z,14.00
2017-09-29T07:37:55.544Z,14.20
2017-09-29T07:40:23.836Z,14.00
2017-09-29T07:42:52.335Z,14.20
2017-09-29T07:45:20.733Z,14.30
2017-09-29T07:47:49.023Z,14.40
2017-09-29T07:50:17.352Z,14.40
2017-09-29T07:52:45.648Z,14.40
2017-09-29T07:55:14.043Z,14.60
2017-09-29T07:57:42.443Z,14.80
2017-09-29T08:00:10.751Z,15.10
2017-09-29T08:02:39.076Z,15.10
2017-09-29T08:05:07.367Z,15.20
2017-09-29T08:07:37.208Z,15.30
2017-09-29T08:10:05.504Z,15.30
2017-09-29T08:12:35.331Z,15.20
2017-09-29T08:15:05.272Z,15.10
2017-09-29T08:17:33.610Z,15.10
2017-09-29T08:20:02.688Z,15.10
2017-09-29T08:22:31.015Z,15.00
2017-09-29T08:24:59.335Z,14.90
2017-09-29T08:27:28.396Z,15.00
2017-09-29T08:29:56.727Z,15.00
2017-09-29T08:32:25.048Z,14.80
2017-09-29T08:34:54.131Z,15.20
2017-09-29T08:37:22.431Z,15.20
2017-09-29T08:39:50.839Z,15.20
2017-09-29T08:42:19.173Z,15.30
2017-09-29T08:44:48.257Z,15.70
2017-09-29T08:47:16.771Z,15.70
2017-09-29T08:49:45.068Z,15.70
2017-09-29T08:52:13.359Z,15.50
2017-09-29T08:54:41.676Z,15.60
2017-09-29T08:57:09.973Z,15.60
2017-09-29T08:59:38.292Z,15.60
2017-09-29T09:02:06.635Z,15.70
2017-09-29T09:04:34.996Z,15.70
2017-09-29T09:07:03.301Z,15.90
2017-09-29T09:09:32.395Z,16.20
2017-09-29T09:12:00.683Z,16.20
2017-09-29T09:14:29.125Z,16.30
2017-09-29T09:16:58.924Z,16.60
2017-09-29T09:19:27.243Z,16.60
2017-09-29T09:21:55.760Z,16.80
2017-09-29T09:24:24.164Z,16.60
2017-09-29T09:26:52.564Z,16.50
2017-09-29T09:29:21.058Z,16.30
2017-09-29T09:31:49.380Z,16.40
2017-09-29T09:34:17.675Z,16.60
2017-09-29T09:36:46.009Z,16.60
2017-09-29T09:39:15.111Z,16.70
2017-09-29T09:41:44.912Z,16.60
2017-09-29T09:44:13.208Z,16.60
2017-09-29T09:46:41.528Z,16.70
2017-09-29T09:49:09.859Z,16.90
2017-09-29T09:51:39.681Z,17.00
2017-09-29T09:54:08.020Z,16.90
2017-09-29T09:56:37.119Z,16.80
2017-09-29T09:59:05.520Z,16.80
2017-09-29T10:01:34.605Z,16.60
2017-09-29T10:04:03.078Z,16.60
2017-09-29T10:06:31.379Z,16.70
2017-09-29T10:08:59.671Z,16.70
2017-09-29T10:11:28.760Z,16.90
2017-09-29T10:13:57.087Z,16.90
2017-09-29T10:16:26.176Z,16.80
2017-09-29T10:18:54.611Z,16.80
2017-09-29T10:21:23.671Z,17.20
2017-09-29T10:23:51.963Z,17.20
2017-09-29T10:26:20.291Z,17.20
2017-09-29T10:28:48.612Z,17.30
2017-09-29T10:31:16.932Z,17.30
2017-09-29T10:33:45.300Z,17.40
2017-09-29T10:36:13.719Z,17.50
2017-09-29T10:38:42.068Z,17.60
2017-09-29T10:41:11.123Z,18.10
2017-09-29T10:43:39.419Z,18.00
2017-09-29T10:46:07.750Z,17.90
2017-09-29T10:48:36.160Z,17.80
2017-09-29T10:51:05.295Z,17.50
2017-09-29T10:53:34.377Z,17.70
2017-09-29T10:56:02.793Z,17.70
2017-09-29T10:58:32.012Z,17.90
2017-09-29T11:01:00.315Z,17.90
2017-09-29T11:03:28.712Z,17.90
2017-09-29T11:05:57.004Z,18.00
2017-09-29T11:08:25.324Z,17.80
2017-09-29T11:10:53.620Z,17.90
2017-09-29T11:13:21.955Z,18.10
2017-09-29T11:15:51.073Z,18.30
2017-09-29T11:18:19.423Z,18.30
2017-09-29T11:20:47.720Z,18.50
2017-09-29T11:23:16.040Z,18.60
2017-09-29T11:25:44.362Z,18.70
2017-09-29T11:28:12.868Z,18.70
2017-09-29T11:30:41.160Z,18.80
2017-09-29T11:33:09.456Z,18.90
2017-09-29T11:35:37.787Z,19.00
2017-09-29T11:38:06.117Z,18.80
2017-09-29T11:40:35.411Z,18.80
2017-09-29T11:43:03.716Z,18.70
2017-09-29T11:45:32.036Z,18.70
2017-09-29T11:48:01.095Z,18.90
2017-09-29T11:50:29.520Z,18.90
2017-09-29T11:52:57.819Z,18.90
2017-09-29T11:55:26.132Z,19.00
2017-09-29T11:57:54.451Z,19.10
2017-09-29T12:00:22.743Z,19.20
2017-09-29T12:02:51.071Z,19.40
2017-09-29T12:05:20.163Z,19.50
2017-09-29T12:07:48.560Z,19.40
2017-09-29T12:10:16.847Z,19.50
2017-09-29T12:12:45.179Z,19.50
2017-09-29T12:15:14.268Z,19.50
2017-09-29T12:17:42.587Z,19.40
2017-09-29T12:20:10.992Z,19.50
2017-09-29T12:22:39.316Z,19.70
2017-09-29T12:25:07.701Z,19.80
2017-09-29T12:27:36.037Z,19.80
2017-09-29T12:30:05.111Z,19.80
2017-09-29T12:32:33.724Z,19.80
2017-09-29T12:35:02.020Z,19.90
2017-09-29T12:37:30.311Z,19.90
2017-09-29T12:39:58.728Z,19.90
2017-09-29T12:42:27.052Z,19.80
2017-09-29T12:44:55.378Z,19.90
2017-09-29T12:47:24.456Z,19.70
2017-09-29T12:49:52.780Z,19.70
2017-09-29T12:52:21.158Z,19.60
2017-09-29T12:54:49.483Z,19.50
2017-09-29T12:57:17.868Z,19.50
2017-09-29T12:59:46.183Z,19.40
2017-09-29T13:02:14.675Z,19.40
2017-09-29T13:04:42.967Z,19.50
2017-09-29T13:07:11.264Z,19.60
2017-09-29T13:09:39.583Z,19.70
2017-09-29T13:12:07.987Z,19.60
2017-09-29T13:14:36.288Z,19.60
2017-09-29T13:17:04.620Z,19.60
2017-09-29T13:19:33.675Z,19.60
2017-09-29T13:22:02.027Z,19.60
2017-09-29T13:24:31.827Z,19.50
2017-09-29T13:27:00.148Z,19.50
2017-09-29T13:29:28.443Z,19.40
2017-09-29T13:31:56.736Z,19.40
2017-09-29T13:34:25.773Z,19.40
2017-09-29T13:36:54.067Z,19.40
2017-09-29T13:39:22.362Z,19.40
2017-09-29T13:41:50.774Z,19.40
2017-09-29T13:44:19.169Z,19.30
2017-09-29T13:46:47.589Z,19.30
2017-09-29T13:49:15.895Z,19.20
2017-09-29T13:51:45.724Z,19.10
2017-09-29T13:54:14.126Z,19.10
2017-09-29T13:56:42.419Z,19.10
2017-09-29T13:59:10.736Z,19.10
2017-09-29T14:01:39.080Z,19.00
2017-09-29T14:04:08.143Z,19.00
2017-09-29T14:06:36.452Z,19.00
2017-09-29T14:09:04.779Z,19.00
2017-09-29T14:11:33.403Z,18.90
2017-09-29T14:14:02.488Z,19.00
2017-09-29T14:16:30.779Z,18.90
2017-09-29T14:18:59.127Z,18.90
2017-09-29T14:21:28.183Z,18.90
2017-09-29T14:23:56.511Z,18.90
2017-09-29T14:26:24.989Z,18.90
2017-09-29T14:28:53.288Z,18.90
2017-09-29T14:31:21.623Z,18.90
2017-09-29T14:33:50.034Z,18.80
2017-09-29T14:36:18.331Z,18.80
2017-09-29T14:38:46.636Z,18.70
2017-09-29T14:41:15.031Z,18.60
2017-09-29T14:43:43.335Z,18.60
2017-09-29T14:46:11.627Z,18.60
2017-09-29T14:48:39.970Z,18.60
2017-09-29T14:51:09.351Z,18.60
2017-09-29T14:53:37.755Z,18.60
2017-09-29T14:56:06.117Z,18.60
2017-09-29T14:58:34.477Z,18.60
2017-09-29T15:01:04.408Z,18.50
2017-09-29T15:03:32.695Z,18.50
2017-09-29T15:06:00.996Z,18.50
2017-09-29T15:08:29.315Z,18.40
2017-09-29T15:10:57.608Z,18.40
2017-09-29T15:13:25.937Z,18.40
2017-09-29T15:15:54.232Z,18.30
2017-09-29T15:18:22.631Z,18.20
2017-09-29T15:20:50.964Z,18.20
2017-09-29T15:23:20.055Z,18.10
2017-09-29T15:25:48.396Z,18.00
2017-09-29T15:28:17.461Z,18.10
2017-09-29T15:30:45.763Z,18.00
2017-09-29T15:33:14.090Z,18.00
2017-09-29T15:35:42.488Z,18.10
2017-09-29T15:38:10.807Z,18.00
2017-09-29T15:40:39.099Z,18.00
2017-09-29T15:43:07.436Z,17.90
2017-09-29T15:45:36.515Z,17.60
2017-09-29T15:48:04.928Z,17.60
2017-09-29T15:50:33.223Z,17.60
2017-09-29T15:53:02.335Z,17.50
2017-09-29T15:55:30.631Z,17.50
2017-09-29T15:57:58.955Z,17.30
2017-09-29T16:00:28.059Z,17.40
2017-09-29T16:02:56.351Z,17.40
2017-09-29T16:05:24.769Z,17.40
2017-09-29T16:07:53.056Z,17.30
2017-09-29T16:10:21.353Z,17.20
2017-09-29T16:12:49.671Z,17.00
2017-09-29T16:15:18.075Z,16.90
2017-09-29T16:17:46.405Z,16.80
2017-09-29T16:20:14.732Z,16.70
2017-09-29T16:22:43.068Z,16.60
2017-09-29T16:25:11.368Z,16.50
2017-09-29T16:27:39.687Z,16.50
2017-09-29T16:30:08.019Z,16.30
2017-09-29T16:32:37.083Z,16.20
2017-09-29T16:35:05.507Z,16.20
2017-09-29T16:37:33.908Z,16.10
2017-09-29T16:40:02.204Z,16.10
2017-09-29T16:42:30.524Z,16.00
2017-09-29T16:44:58.847Z,15.90
2017-09-29T16:47:28.052Z,15.90
2017-09-29T16:49:57.887Z,15.80
2017-09-29T16:52:26.287Z,15.80
2017-09-29T16:54:54.732Z,15.80
2017-09-29T16:57:23.788Z,15.50
2017-09-29T16:59:52.087Z,15.40
2017-09-29T17:02:20.407Z,15.40
2017-09-29T17:04:48.727Z,15.30
2017-09-29T17:07:17.123Z,15.30
2017-09-29T17:09:45.731Z,15.30
2017-09-29T17:12:14.019Z,15.20
2017-09-29T17:14:42.332Z,15.10
2017-09-29T17:17:10.739Z,15.20
2017-09-29T17:19:39.027Z,15.10
2017-09-29T17:22:07.532Z,15.00
2017-09-29T17:24:35.875Z,15.00
2017-09-29T17:27:05.773Z,14.80
2017-09-29T17:29:34.107Z,14.80
2017-09-29T17:32:02.496Z,14.70
2017-09-29T17:34:31.738Z,14.60
2017-09-29T17:37:00.067Z,14.70
2017-09-29T17:39:28.424Z,14.60
2017-09-29T17:41:56.748Z,14.50
2017-09-29T17:44:25.044Z,14.40
2017-09-29T17:46:53.431Z,14.40
2017-09-29T17:49:21.763Z,14.20
2017-09-29T17:51:50.872Z,14.10
2017-09-29T17:54:19.962Z,14.10
2017-09-29T17:56:48.255Z,14.10
2017-09-29T17:59:16.622Z,14.00
2017-09-29T18:01:45.709Z,14.00
2017-09-29T18:04:14.104Z,14.00
2017-09-29T18:06:42.448Z,14.00
2017-09-29T18:09:11.527Z,13.80
2017-09-29T18:11:39.848Z,13.80
2017-09-29T18:14:09.144Z,13.70
2017-09-29T18:16:38.362Z,13.70
2017-09-29T18:19:06.684Z,13.80
2017-09-29T18:21:36.007Z,13.80
2017-09-29T18:24:04.415Z,13.70
2017-09-29T18:26:32.710Z,13.70
2017-09-29T18:29:01.804Z,13.70
2017-09-29T18:31:30.232Z,13.70
2017-09-29T18:33:58.551Z,13.70
2017-09-29T18:36:26.844Z,13.70
2017-09-29T18:38:55.172Z,13.70
2017-09-29T18:41:27.849Z,13.60
2017-09-29T18:44:11.943Z,13.60
2017-09-29T18:46:47.664Z,13.50
2017-09-29T18:49:15.999Z,13.50
2017-09-29T18:51:45.912Z,13.50
2017-09-29T18:54:16.798Z,13.50
2017-09-29T18:56:45.091Z,13.40
2017-09-29T18:59:13.508Z,13.40
2017-09-29T19:01:41.906Z,13.30
2017-09-29T19:04:10.227Z,13.30
2017-09-29T19:06:39.287Z,13.30
2017-09-29T19:09:07.628Z,13.30
2017-09-29T19:11:35.948Z,13.30
2017-09-29T19:14:04.645Z,13.20
2017-09-29T19:22:28.869Z,13.10
2017-09-29T19:24:58.690Z,13.00
2017-09-29T19:27:29.004Z,13.00
2017-09-29T19:29:57.464Z,12.90
2017-09-29T19:32:25.855Z,12.90
2017-09-29T19:34:54.747Z,13.00
2017-09-29T19:37:23.124Z,12.90
2017-09-29T19:39:51.459Z,12.90
2017-09-29T19:42:19.876Z,12.90
2017-09-29T19:44:48.280Z,12.70
2017-09-29T19:47:16.610Z,12.60
2017-09-29T19:49:46.412Z,12.70
2017-09-29T19:52:14.710Z,12.70
2017-09-29T19:54:43.027Z,12.70
2017-09-29T19:57:11.367Z,12.70
2017-09-29T19:59:40.455Z,12.60
2017-09-29T20:02:09.183Z,12.60
2017-09-29T20:04:39.064Z,12.60
2017-09-29T20:07:07.459Z,12.60
2017-09-29T20:09:36.060Z,12.50
2017-09-29T20:12:05.026Z,12.50
2017-09-29T20:14:34.387Z,12.50
2017-09-29T20:17:02.749Z,12.50
2017-09-29T20:19:31.073Z,12.40
2017-09-29T20:21:59.584Z,12.50
2017-09-29T20:24:27.948Z,12.40
2017-09-29T20:26:56.307Z,12.30
2017-09-29T20:29:25.503Z,12.30
2017-09-29T20:31:54.709Z,12.20
2017-09-29T20:34:23.055Z,12.20
2017-09-29T20:36:52.118Z,12.10
2017-09-29T20:39:20.407Z,12.10
2017-09-29T20:41:48.751Z,12.00
2017-09-29T20:44:17.055Z,11.90
2017-09-29T20:46:45.395Z,11.90
2017-09-29T20:49:14.491Z,11.90
2017-09-29T20:51:42.815Z,11.80
2017-09-29T20:54:11.998Z,11.70
2017-09-29T20:56:40.495Z,11.70
2017-09-29T20:59:09.112Z,11.70
2017-09-29T21:01:37.817Z,11.60
2017-09-29T21:04:06.295Z,11.60
2017-09-29T21:06:34.643Z,11.60
2017-09-29T21:09:03.070Z,11.60
2017-09-29T21:11:31.451Z,11.60
2017-09-29T21:13:59.747Z,11.60
2017-09-29T21:16:28.080Z,11.60
2017-09-29T21:18:57.372Z,11.70
2017-09-29T21:21:26.395Z,11.70
2017-09-29T21:23:55.294Z,11.70
2017-09-29T21:26:24.439Z,11.60
2017-09-29T21:28:52.736Z,11.60
2017-09-29T21:31:21.072Z,11.60
2017-09-29T21:33:50.164Z,11.60
2017-09-29T21:36:18.564Z,11.60
2017-09-29T21:38:46.904Z,11.50
2017-09-29T21:41:15.991Z,11.30
2017-09-29T21:43:44.389Z,11.30
2017-09-29T21:46:12.683Z,11.30
2017-09-29T21:48:41.192Z,11.20
2017-09-29T21:51:09.889Z,11.20
2017-09-29T21:53:38.595Z,11.10
2017-09-29T21:56:07.027Z,11.10
2017-09-29T21:58:36.471Z,11.10
2017-09-29T22:01:04.946Z,11.10
2017-09-29T22:03:33.351Z,11.00
2017-09-29T22:06:01.722Z,11.00
2017-09-29T22:08:30.021Z,10.90
2017-09-29T22:10:58.338Z,11.00
2017-09-29T22:13:26.667Z,11.00
2017-09-29T22:15:55.162Z,10.80
2017-09-29T22:18:23.615Z,10.90
2017-09-29T22:20:52.815Z,10.90
2017-09-29T22:23:21.895Z,10.90
2017-09-29T22:25:50.198Z,10.90
2017-09-29T22:28:18.535Z,10.80
2017-09-29T22:30:46.931Z,10.80
2017-09-29T22:33:15.231Z,10.70
2017-09-29T22:35:43.568Z,10.60
2017-09-29T22:38:11.941Z,10.50
2017-09-29T22:40:40.272Z,10.60
2017-09-29T22:43:09.396Z,10.40
2017-09-29T22:45:37.980Z,10.40
2017-09-29T22:48:07.788Z,10.30
2017-09-29T22:50:36.212Z,10.20
2017-09-29T22:53:05.586Z,10.20
2017-09-29T22:55:34.002Z,10.20
2017-09-29T22:58:02.326Z,10.20
2017-09-29T23:00:30.619Z,10.30
2017-09-29T23:02:59.195Z,10.20
2017-09-29T23:05:27.672Z,10.40
2017-09-29T23:07:56.817Z,10.40
2017-09-29T23:10:25.223Z,10.30
2017-09-29T23:12:54.458Z,10.20
2017-09-29T23:15:23.111Z,10.20
2017-09-29T23:17:52.343Z,10.20
2017-09-29T23:20:20.736Z,10.20
2017-09-29T23:22:49.062Z,10.30
2017-09-29T23:25:17.456Z,10.40
2017-09-29T23:27:45.860Z,10.40
2017-09-29T23:30:14.159Z,10.30
2017-09-29T23:32:42.458Z,10.40
2017-09-29T23:35:10.951Z,10.40
2017-09-29T23:37:39.315Z,10.40
2017-09-29T23:40:07.816Z,10.40
2017-09-29T23:42:36.386Z,10.30
2017-09-29T23:45:04.971Z,10.20
2017-09-29T23:47:33.555Z,10.10
2017-09-29T23:50:01.859Z,10.20
2017-09-29T23:52:30.155Z,10.10
2017-09-29T23:54:58.488Z,10.10
2017-09-29T23:57:26.811Z,10.00
2017-09-29T23:59:55.332Z,9.90
